sensor_id;sensor_type;location;lat;lon;timestamp;temperature;humidity
27128;DHT22;14660;49.008;8.390;2022-07-29T00:01:39;23.30;99.90
27128;DHT22;14660;49.008;8.390;2022-07-29T00:04:05;23.30;99.90
27128;DHT22;14660;49.008;8.390;2022-07-29T00:06:32;23.30;99.90
27128;DHT22;14660;49.008;8.390;2022-07-29T00:08:58;23.30;99.90
27128;DHT22;14660;49.008;8.390;2022-07-29T00:11:25;23.30;99.90
27128;DHT22;14660;49.008;8.390;2022-07-29T00:13:52;23.20;99.90
27128;DHT22;14660;49.008;8.390;2022-07-29T00:16:19;23.20;99.90
27128;DHT22;14660;49.008;8.390;2022-07-29T00:18:46;23.20;99.90
27128;DHT22;14660;49.008;8.390;2022-07-29T00:21:13;23.10;99.90
27128;DHT22;14660;49.008;8.390;2022-07-29T00:23:40;23.10;99.90
27128;DHT22;14660;49.008;8.390;2022-07-29T00:26:08;23.20;99.90
27128;DHT22;14660;49.008;8.390;2022-07-29T00:28:35;23.20;99.90
27128;DHT22;14660;49.008;8.390;2022-07-29T00:31:02;23.30;99.90
27128;DHT22;14660;49.008;8.390;2022-07-29T00:33:29;23.30;99.90
27128;DHT22;14660;49.008;8.390;2022-07-29T00:35:56;23.30;99.90
27128;DHT22;14660;49.008;8.390;2022-07-29T00:38:23;23.30;99.90
27128;DHT22;14660;49.008;8.390;2022-07-29T00:40:49;23.30;99.90
27128;DHT22;14660;49.008;8.390;2022-07-29T00:43:15;23.30;99.90
27128;DHT22;14660;49.008;8.390;2022-07-29T00:45:43;23.20;99.90
27128;DHT22;14660;49.008;8.390;2022-07-29T00:48:10;23.20;99.90
27128;DHT22;14660;49.008;8.390;2022-07-29T00:50:37;23.10;99.90
27128;DHT22;14660;49.008;8.390;2022-07-29T00:53:08;23.20;99.90
27128;DHT22;14660;49.008;8.390;2022-07-29T00:55:35;23.10;99.90
27128;DHT22;14660;49.008;8.390;2022-07-29T00:58:02;23.00;99.90
27128;DHT22;14660;49.008;8.390;2022-07-29T01:00:29;23.00;99.90
27128;DHT22;14660;49.008;8.390;2022-07-29T01:02:56;23.00;99.90
27128;DHT22;14660;49.008;8.390;2022-07-29T01:05:25;23.00;99.90
27128;DHT22;14660;49.008;8.390;2022-07-29T01:07:54;23.00;99.90
27128;DHT22;14660;49.008;8.390;2022-07-29T01:10:23;22.90;99.90
27128;DHT22;14660;49.008;8.390;2022-07-29T01:12:52;22.90;99.90
27128;DHT22;14660;49.008;8.390;2022-07-29T01:15:20;22.80;99.90
27128;DHT22;14660;49.008;8.390;2022-07-29T01:18:11;22.90;99.90
27128;DHT22;14660;49.008;8.390;2022-07-29T01:29:45;22.70;99.90
27128;DHT22;14660;49.008;8.390;2022-07-29T01:32:20;22.50;99.90
27128;DHT22;14660;49.008;8.390;2022-07-29T01:35:06;22.50;99.90
27128;DHT22;14660;49.008;8.390;2022-07-29T01:37:53;22.50;99.90
27128;DHT22;14660;49.008;8.390;2022-07-29T01:40:28;22.50;99.90
27128;DHT22;14660;49.008;8.390;2022-07-29T01:42:57;22.40;99.90
27128;DHT22;14660;49.008;8.390;2022-07-29T01:45:43;22.30;99.90
27128;DHT22;14660;49.008;8.390;2022-07-29T01:51:21;22.20;99.90
27128;DHT22;14660;49.008;8.390;2022-07-29T01:56:37;21.80;99.90
27128;DHT22;14660;49.008;8.390;2022-07-29T01:59:06;21.90;99.90
27128;DHT22;14660;49.008;8.390;2022-07-29T02:01:35;21.90;99.90
27128;DHT22;14660;49.008;8.390;2022-07-29T02:04:07;22.00;99.90
27128;DHT22;14660;49.008;8.390;2022-07-29T02:06:38;21.90;99.90
27128;DHT22;14660;49.008;8.390;2022-07-29T02:09:06;21.90;99.90
27128;DHT22;14660;49.008;8.390;2022-07-29T02:11:34;21.90;99.90
27128;DHT22;14660;49.008;8.390;2022-07-29T02:14:04;21.80;99.90
27128;DHT22;14660;49.008;8.390;2022-07-29T02:16:32;21.80;99.90
27128;DHT22;14660;49.008;8.390;2022-07-29T02:19:01;21.80;99.90
27128;DHT22;14660;49.008;8.390;2022-07-29T02:21:30;21.70;99.90
27128;DHT22;14660;49.008;8.390;2022-07-29T02:24:00;21.70;99.90
27128;DHT22;14660;49.008;8.390;2022-07-29T02:26:28;21.70;99.90
27128;DHT22;14660;49.008;8.390;2022-07-29T02:28:57;21.60;99.90
27128;DHT22;14660;49.008;8.390;2022-07-29T02:31:30;21.70;99.90
27128;DHT22;14660;49.008;8.390;2022-07-29T02:34:02;21.70;99.90
27128;DHT22;14660;49.008;8.390;2022-07-29T02:36:30;21.70;99.90
27128;DHT22;14660;49.008;8.390;2022-07-29T02:38:58;21.60;99.90
27128;DHT22;14660;49.008;8.390;2022-07-29T02:41:47;21.60;99.90
27128;DHT22;14660;49.008;8.390;2022-07-29T02:44:19;21.70;99.90
27128;DHT22;14660;49.008;8.390;2022-07-29T02:49:37;21.40;99.90
27128;DHT22;14660;49.008;8.390;2022-07-29T02:52:12;21.50;99.90
27128;DHT22;14660;49.008;8.390;2022-07-29T02:55:01;21.40;99.90
27128;DHT22;14660;49.008;8.390;2022-07-29T02:58:09;21.50;99.90
27128;DHT22;14660;49.008;8.390;2022-07-29T03:00:39;21.60;99.90
27128;DHT22;14660;49.008;8.390;2022-07-29T03:03:10;21.60;99.90
27128;DHT22;14660;49.008;8.390;2022-07-29T03:05:38;21.70;99.90
27128;DHT22;14660;49.008;8.390;2022-07-29T03:08:07;21.70;99.90
27128;DHT22;14660;49.008;8.390;2022-07-29T03:10:37;21.70;99.90
27128;DHT22;14660;49.008;8.390;2022-07-29T03:13:05;21.50;99.90
27128;DHT22;14660;49.008;8.390;2022-07-29T03:15:34;21.50;99.90
27128;DHT22;14660;49.008;8.390;2022-07-29T03:18:02;21.30;99.90
27128;DHT22;14660;49.008;8.390;2022-07-29T03:20:29;21.30;99.90
27128;DHT22;14660;49.008;8.390;2022-07-29T03:22:56;21.40;99.90
27128;DHT22;14660;49.008;8.390;2022-07-29T03:25:23;21.30;99.90
27128;DHT22;14660;49.008;8.390;2022-07-29T03:27:50;21.20;99.90
27128;DHT22;14660;49.008;8.390;2022-07-29T03:30:17;21.20;99.90
27128;DHT22;14660;49.008;8.390;2022-07-29T03:32:44;21.20;99.90
27128;DHT22;14660;49.008;8.390;2022-07-29T03:35:11;21.20;99.90
27128;DHT22;14660;49.008;8.390;2022-07-29T03:37:37;21.20;99.90
27128;DHT22;14660;49.008;8.390;2022-07-29T03:40:07;21.30;99.90
27128;DHT22;14660;49.008;8.390;2022-07-29T03:42:36;21.20;99.90
27128;DHT22;14660;49.008;8.390;2022-07-29T03:45:07;21.30;99.90
27128;DHT22;14660;49.008;8.390;2022-07-29T03:47:35;21.30;99.90
27128;DHT22;14660;49.008;8.390;2022-07-29T03:50:11;21.40;99.90
27128;DHT22;14660;49.008;8.390;2022-07-29T03:52:39;21.40;99.90
27128;DHT22;14660;49.008;8.390;2022-07-29T03:55:07;21.20;99.90
27128;DHT22;14660;49.008;8.390;2022-07-29T03:57:36;21.30;99.90
27128;DHT22;14660;49.008;8.390;2022-07-29T04:00:05;21.30;99.90
27128;DHT22;14660;49.008;8.390;2022-07-29T04:02:33;21.30;99.90
27128;DHT22;14660;49.008;8.390;2022-07-29T04:05:00;21.30;99.90
27128;DHT22;14660;49.008;8.390;2022-07-29T04:07:27;21.30;99.90
27128;DHT22;14660;49.008;8.390;2022-07-29T04:09:54;21.20;99.90
27128;DHT22;14660;49.008;8.390;2022-07-29T04:12:21;21.00;99.90
27128;DHT22;14660;49.008;8.390;2022-07-29T04:14:48;21.00;99.90
27128;DHT22;14660;49.008;8.390;2022-07-29T04:17:15;21.00;99.90
27128;DHT22;14660;49.008;8.390;2022-07-29T04:19:42;21.00;99.90
27128;DHT22;14660;49.008;8.390;2022-07-29T04:22:08;21.00;99.90
27128;DHT22;14660;49.008;8.390;2022-07-29T04:24:35;21.10;99.90
27128;DHT22;14660;49.008;8.390;2022-07-29T04:27:02;21.10;99.90
27128;DHT22;14660;49.008;8.390;2022-07-29T04:29:29;21.10;99.90
27128;DHT22;14660;49.008;8.390;2022-07-29T04:31:56;21.20;99.90
27128;DHT22;14660;49.008;8.390;2022-07-29T04:34:22;21.30;99.90
27128;DHT22;14660;49.008;8.390;2022-07-29T04:36:49;21.40;99.90
27128;DHT22;14660;49.008;8.390;2022-07-29T04:39:16;21.40;99.90
27128;DHT22;14660;49.008;8.390;2022-07-29T04:41:44;21.50;99.90
27128;DHT22;14660;49.008;8.390;2022-07-29T04:44:11;21.50;99.90
27128;DHT22;14660;49.008;8.390;2022-07-29T04:46:38;21.60;99.90
27128;DHT22;14660;49.008;8.390;2022-07-29T04:49:05;21.60;99.90
27128;DHT22;14660;49.008;8.390;2022-07-29T04:51:32;21.60;99.90
27128;DHT22;14660;49.008;8.390;2022-07-29T04:53:59;21.70;99.90
27128;DHT22;14660;49.008;8.390;2022-07-29T04:56:26;21.70;99.90
27128;DHT22;14660;49.008;8.390;2022-07-29T04:58:53;21.70;99.90
27128;DHT22;14660;49.008;8.390;2022-07-29T05:01:20;21.70;99.90
27128;DHT22;14660;49.008;8.390;2022-07-29T05:03:47;21.80;99.90
27128;DHT22;14660;49.008;8.390;2022-07-29T05:06:15;21.70;99.90
27128;DHT22;14660;49.008;8.390;2022-07-29T05:08:42;21.70;99.90
27128;DHT22;14660;49.008;8.390;2022-07-29T05:11:08;21.80;99.90
27128;DHT22;14660;49.008;8.390;2022-07-29T05:13:35;21.70;99.90
27128;DHT22;14660;49.008;8.390;2022-07-29T05:16:03;21.80;99.90
27128;DHT22;14660;49.008;8.390;2022-07-29T05:18:30;22.10;99.90
27128;DHT22;14660;49.008;8.390;2022-07-29T05:20:57;22.40;99.90
27128;DHT22;14660;49.008;8.390;2022-07-29T05:23:23;22.60;99.90
27128;DHT22;14660;49.008;8.390;2022-07-29T05:25:50;22.90;99.90
27128;DHT22;14660;49.008;8.390;2022-07-29T05:28:17;23.10;99.90
27128;DHT22;14660;49.008;8.390;2022-07-29T05:30:44;23.30;99.90
27128;DHT22;14660;49.008;8.390;2022-07-29T05:33:11;23.20;99.90
27128;DHT22;14660;49.008;8.390;2022-07-29T05:35:38;23.30;99.90
27128;DHT22;14660;49.008;8.390;2022-07-29T05:38:05;23.50;99.90
27128;DHT22;14660;49.008;8.390;2022-07-29T05:40:31;23.70;99.90
27128;DHT22;14660;49.008;8.390;2022-07-29T05:42:57;23.80;99.90
27128;DHT22;14660;49.008;8.390;2022-07-29T05:45:23;23.80;99.90
27128;DHT22;14660;49.008;8.390;2022-07-29T05:47:51;23.60;99.90
27128;DHT22;14660;49.008;8.390;2022-07-29T05:50:18;23.40;99.90
27128;DHT22;14660;49.008;8.390;2022-07-29T05:52:45;23.30;99.90
27128;DHT22;14660;49.008;8.390;2022-07-29T05:55:12;23.10;99.90
27128;DHT22;14660;49.008;8.390;2022-07-29T05:57:38;23.00;99.90
27128;DHT22;14660;49.008;8.390;2022-07-29T06:00:06;22.90;99.90
27128;DHT22;14660;49.008;8.390;2022-07-29T06:02:33;22.80;99.90
27128;DHT22;14660;49.008;8.390;2022-07-29T06:05:00;22.80;99.90
27128;DHT22;14660;49.008;8.390;2022-07-29T06:07:26;22.90;99.90
27128;DHT22;14660;49.008;8.390;2022-07-29T06:09:53;22.90;99.90
27128;DHT22;14660;49.008;8.390;2022-07-29T06:12:20;23.00;99.90
27128;DHT22;14660;49.008;8.390;2022-07-29T06:14:47;23.10;99.90
27128;DHT22;14660;49.008;8.390;2022-07-29T06:17:16;23.30;99.90
27128;DHT22;14660;49.008;8.390;2022-07-29T06:19:43;23.40;99.90
27128;DHT22;14660;49.008;8.390;2022-07-29T06:22:10;23.50;99.90
27128;DHT22;14660;49.008;8.390;2022-07-29T06:24:37;23.50;99.90
27128;DHT22;14660;49.008;8.390;2022-07-29T06:27:08;23.60;99.90
27128;DHT22;14660;49.008;8.390;2022-07-29T06:29:36;23.50;99.90
27128;DHT22;14660;49.008;8.390;2022-07-29T06:32:03;23.60;99.90
27128;DHT22;14660;49.008;8.390;2022-07-29T06:34:30;23.60;99.90
27128;DHT22;14660;49.008;8.390;2022-07-29T06:36:57;23.70;99.90
27128;DHT22;14660;49.008;8.390;2022-07-29T06:39:24;23.80;99.90
27128;DHT22;14660;49.008;8.390;2022-07-29T06:41:50;24.00;99.90
27128;DHT22;14660;49.008;8.390;2022-07-29T06:44:18;24.20;99.90
27128;DHT22;14660;49.008;8.390;2022-07-29T06:46:45;24.40;99.90
27128;DHT22;14660;49.008;8.390;2022-07-29T06:49:16;24.40;99.90
27128;DHT22;14660;49.008;8.390;2022-07-29T06:51:42;24.50;99.90
27128;DHT22;14660;49.008;8.390;2022-07-29T06:54:09;24.60;99.90
27128;DHT22;14660;49.008;8.390;2022-07-29T06:56:36;24.60;99.90
27128;DHT22;14660;49.008;8.390;2022-07-29T06:59:04;24.60;99.90
27128;DHT22;14660;49.008;8.390;2022-07-29T07:01:31;24.60;99.90
27128;DHT22;14660;49.008;8.390;2022-07-29T07:03:58;24.70;99.90
27128;DHT22;14660;49.008;8.390;2022-07-29T07:06:25;24.90;99.90
27128;DHT22;14660;49.008;8.390;2022-07-29T07:08:52;25.00;99.90
27128;DHT22;14660;49.008;8.390;2022-07-29T07:11:19;25.30;99.90
27128;DHT22;14660;49.008;8.390;2022-07-29T07:13:45;25.50;99.90
27128;DHT22;14660;49.008;8.390;2022-07-29T07:16:12;25.70;99.90
27128;DHT22;14660;49.008;8.390;2022-07-29T07:18:39;25.80;99.90
27128;DHT22;14660;49.008;8.390;2022-07-29T07:21:07;25.90;99.90
27128;DHT22;14660;49.008;8.390;2022-07-29T07:23:34;25.90;99.90
27128;DHT22;14660;49.008;8.390;2022-07-29T07:26:01;25.80;99.90
27128;DHT22;14660;49.008;8.390;2022-07-29T07:28:28;25.80;99.90
27128;DHT22;14660;49.008;8.390;2022-07-29T07:30:55;25.80;99.90
27128;DHT22;14660;49.008;8.390;2022-07-29T07:33:23;25.80;99.90
27128;DHT22;14660;49.008;8.390;2022-07-29T07:35:51;25.80;99.90
27128;DHT22;14660;49.008;8.390;2022-07-29T07:38:17;26.00;99.90
27128;DHT22;14660;49.008;8.390;2022-07-29T07:40:44;26.10;99.90
27128;DHT22;14660;49.008;8.390;2022-07-29T07:43:11;26.10;99.90
27128;DHT22;14660;49.008;8.390;2022-07-29T07:45:38;26.10;99.90
27128;DHT22;14660;49.008;8.390;2022-07-29T07:48:06;26.00;99.90
27128;DHT22;14660;49.008;8.390;2022-07-29T07:50:33;25.90;99.90
27128;DHT22;14660;49.008;8.390;2022-07-29T07:53:01;25.90;99.90
27128;DHT22;14660;49.008;8.390;2022-07-29T07:55:28;25.90;99.90
27128;DHT22;14660;49.008;8.390;2022-07-29T07:57:55;26.00;99.90
27128;DHT22;14660;49.008;8.390;2022-07-29T08:00:22;26.10;99.90
27128;DHT22;14660;49.008;8.390;2022-07-29T08:02:50;26.10;99.90
27128;DHT22;14660;49.008;8.390;2022-07-29T08:05:17;26.10;99.90
27128;DHT22;14660;49.008;8.390;2022-07-29T08:07:46;26.20;99.90
27128;DHT22;14660;49.008;8.390;2022-07-29T08:10:17;26.30;99.90
27128;DHT22;14660;49.008;8.390;2022-07-29T08:13:07;26.40;99.90
27128;DHT22;14660;49.008;8.390;2022-07-29T08:15:34;26.40;99.90
27128;DHT22;14660;49.008;8.390;2022-07-29T08:18:01;26.30;99.90
27128;DHT22;14660;49.008;8.390;2022-07-29T08:20:28;26.20;99.90
27128;DHT22;14660;49.008;8.390;2022-07-29T08:22:56;26.30;99.90
27128;DHT22;14660;49.008;8.390;2022-07-29T08:25:23;26.30;99.90
27128;DHT22;14660;49.008;8.390;2022-07-29T08:27:49;26.20;99.90
27128;DHT22;14660;49.008;8.390;2022-07-29T08:30:16;26.20;99.90
27128;DHT22;14660;49.008;8.390;2022-07-29T08:32:43;26.30;99.90
27128;DHT22;14660;49.008;8.390;2022-07-29T08:35:10;26.60;99.90
27128;DHT22;14660;49.008;8.390;2022-07-29T08:37:37;26.80;99.90
27128;DHT22;14660;49.008;8.390;2022-07-29T08:40:04;27.00;99.90
27128;DHT22;14660;49.008;8.390;2022-07-29T08:42:31;27.20;99.90
27128;DHT22;14660;49.008;8.390;2022-07-29T08:44:58;27.40;99.90
27128;DHT22;14660;49.008;8.390;2022-07-29T08:47:26;27.70;99.90
27128;DHT22;14660;49.008;8.390;2022-07-29T08:49:54;27.80;99.90
27128;DHT22;14660;49.008;8.390;2022-07-29T08:52:21;27.90;99.90
27128;DHT22;14660;49.008;8.390;2022-07-29T08:54:52;28.00;99.90
27128;DHT22;14660;49.008;8.390;2022-07-29T08:57:19;28.20;99.90
27128;DHT22;14660;49.008;8.390;2022-07-29T08:59:50;28.20;99.90
27128;DHT22;14660;49.008;8.390;2022-07-29T09:02:25;28.10;99.90
27128;DHT22;14660;49.008;8.390;2022-07-29T09:04:55;28.00;99.90
27128;DHT22;14660;49.008;8.390;2022-07-29T09:07:23;28.10;99.90
27128;DHT22;14660;49.008;8.390;2022-07-29T09:09:50;28.20;99.90
27128;DHT22;14660;49.008;8.390;2022-07-29T09:12:17;28.30;99.90
27128;DHT22;14660;49.008;8.390;2022-07-29T09:14:44;28.40;99.90
27128;DHT22;14660;49.008;8.390;2022-07-29T09:17:11;28.50;99.90
27128;DHT22;14660;49.008;8.390;2022-07-29T09:19:38;28.60;99.90
27128;DHT22;14660;49.008;8.390;2022-07-29T09:22:06;28.60;99.90
27128;DHT22;14660;49.008;8.390;2022-07-29T09:24:51;28.50;99.90
27128;DHT22;14660;49.008;8.390;2022-07-29T09:27:35;28.20;99.90
27128;DHT22;14660;49.008;8.390;2022-07-29T09:30:20;28.00;99.90
27128;DHT22;14660;49.008;8.390;2022-07-29T09:32:59;27.90;99.90
27128;DHT22;14660;49.008;8.390;2022-07-29T09:35:28;27.80;99.90
27128;DHT22;14660;49.008;8.390;2022-07-29T09:37:56;27.90;99.90
27128;DHT22;14660;49.008;8.390;2022-07-29T09:40:27;27.90;99.90
27128;DHT22;14660;49.008;8.390;2022-07-29T09:42:53;27.80;99.90
27128;DHT22;14660;49.008;8.390;2022-07-29T09:45:33;27.70;99.90
27128;DHT22;14660;49.008;8.390;2022-07-29T09:48:23;27.60;99.90
27128;DHT22;14660;49.008;8.390;2022-07-29T09:50:50;27.60;99.90
27128;DHT22;14660;49.008;8.390;2022-07-29T09:53:37;27.70;99.90
27128;DHT22;14660;49.008;8.390;2022-07-29T09:56:06;27.70;99.90
27128;DHT22;14660;49.008;8.390;2022-07-29T09:58:33;27.80;99.90
27128;DHT22;14660;49.008;8.390;2022-07-29T10:01:01;27.90;99.90
27128;DHT22;14660;49.008;8.390;2022-07-29T10:03:28;27.90;99.90
27128;DHT22;14660;49.008;8.390;2022-07-29T10:06:11;27.90;99.90
27128;DHT22;14660;49.008;8.390;2022-07-29T10:08:41;28.00;99.90
27128;DHT22;14660;49.008;8.390;2022-07-29T10:11:27;28.00;99.90
27128;DHT22;14660;49.008;8.390;2022-07-29T10:13:54;27.90;99.90
27128;DHT22;14660;49.008;8.390;2022-07-29T10:16:21;27.90;99.90
27128;DHT22;14660;49.008;8.390;2022-07-29T10:18:48;27.80;99.90
27128;DHT22;14660;49.008;8.390;2022-07-29T10:21:17;27.70;99.90
27128;DHT22;14660;49.008;8.390;2022-07-29T10:23:44;27.60;99.90
27128;DHT22;14660;49.008;8.390;2022-07-29T10:26:11;27.70;99.90
27128;DHT22;14660;49.008;8.390;2022-07-29T10:28:39;27.80;99.90
27128;DHT22;14660;49.008;8.390;2022-07-29T10:31:07;27.90;99.90
27128;DHT22;14660;49.008;8.390;2022-07-29T10:42:30;28.20;99.90
27128;DHT22;14660;49.008;8.390;2022-07-29T10:44:57;28.20;99.90
27128;DHT22;14660;49.008;8.390;2022-07-29T10:47:25;28.20;99.90
27128;DHT22;14660;49.008;8.390;2022-07-29T10:49:57;28.20;99.90
27128;DHT22;14660;49.008;8.390;2022-07-29T10:52:24;28.20;99.90
27128;DHT22;14660;49.008;8.390;2022-07-29T10:54:54;28.20;99.90
27128;DHT22;14660;49.008;8.390;2022-07-29T10:57:39;28.20;99.90
27128;DHT22;14660;49.008;8.390;2022-07-29T11:00:28;28.30;99.90
27128;DHT22;14660;49.008;8.390;2022-07-29T11:02:55;28.30;99.90
27128;DHT22;14660;49.008;8.390;2022-07-29T11:05:24;28.30;99.90
27128;DHT22;14660;49.008;8.390;2022-07-29T11:10:40;28.20;99.90
27128;DHT22;14660;49.008;8.390;2022-07-29T11:13:07;28.10;99.90
27128;DHT22;14660;49.008;8.390;2022-07-29T11:15:56;28.10;99.90
27128;DHT22;14660;49.008;8.390;2022-07-29T11:18:23;28.20;99.90
27128;DHT22;14660;49.008;8.390;2022-07-29T11:20:51;28.30;99.90
27128;DHT22;14660;49.008;8.390;2022-07-29T11:23:33;28.40;99.90
27128;DHT22;14660;49.008;8.390;2022-07-29T11:26:23;28.60;99.90
27128;DHT22;14660;49.008;8.390;2022-07-29T11:29:17;28.70;99.90
27128;DHT22;14660;49.008;8.390;2022-07-29T11:32:10;28.70;99.90
27128;DHT22;14660;49.008;8.390;2022-07-29T11:34:37;28.90;99.90
27128;DHT22;14660;49.008;8.390;2022-07-29T11:37:25;29.00;99.90
27128;DHT22;14660;49.008;8.390;2022-07-29T11:40:10;29.20;99.90
27128;DHT22;14660;49.008;8.390;2022-07-29T11:45:23;29.50;99.90
27128;DHT22;14660;49.008;8.390;2022-07-29T11:47:57;29.60;99.90
27128;DHT22;14660;49.008;8.390;2022-07-29T11:50:44;29.70;99.90
27128;DHT22;14660;49.008;8.390;2022-07-29T11:53:12;29.90;99.90
27128;DHT22;14660;49.008;8.390;2022-07-29T11:55:40;29.90;99.90
27128;DHT22;14660;49.008;8.390;2022-07-29T11:58:07;29.90;99.90
27128;DHT22;14660;49.008;8.390;2022-07-29T12:00:41;29.90;99.90
27128;DHT22;14660;49.008;8.390;2022-07-29T12:03:10;29.90;99.90
27128;DHT22;14660;49.008;8.390;2022-07-29T12:05:44;29.90;99.90
27128;DHT22;14660;49.008;8.390;2022-07-29T12:08:30;29.80;99.90
27128;DHT22;14660;49.008;8.390;2022-07-29T12:11:18;29.70;99.90
27128;DHT22;14660;49.008;8.390;2022-07-29T12:13:45;29.60;99.90
27128;DHT22;14660;49.008;8.390;2022-07-29T12:16:11;29.50;99.90
27128;DHT22;14660;49.008;8.390;2022-07-29T12:18:38;29.40;99.90
27128;DHT22;14660;49.008;8.390;2022-07-29T12:21:05;29.30;99.90
27128;DHT22;14660;49.008;8.390;2022-07-29T12:23:32;29.20;99.90
27128;DHT22;14660;49.008;8.390;2022-07-29T12:26:00;29.20;99.90
27128;DHT22;14660;49.008;8.390;2022-07-29T12:28:27;29.30;99.90
27128;DHT22;14660;49.008;8.390;2022-07-29T12:30:53;29.30;99.90
27128;DHT22;14660;49.008;8.390;2022-07-29T12:33:38;29.40;99.90
27128;DHT22;14660;49.008;8.390;2022-07-29T12:36:05;29.40;99.90
27128;DHT22;14660;49.008;8.390;2022-07-29T12:38:36;29.50;99.90
27128;DHT22;14660;49.008;8.390;2022-07-29T12:41:03;29.60;99.90
27128;DHT22;14660;49.008;8.390;2022-07-29T12:43:30;29.70;99.90
27128;DHT22;14660;49.008;8.390;2022-07-29T12:45:57;29.80;99.90
27128;DHT22;14660;49.008;8.390;2022-07-29T12:48:42;29.90;99.90
27128;DHT22;14660;49.008;8.390;2022-07-29T12:51:10;30.00;99.90
27128;DHT22;14660;49.008;8.390;2022-07-29T12:53:38;30.00;99.90
27128;DHT22;14660;49.008;8.390;2022-07-29T12:56:06;30.00;99.90
27128;DHT22;14660;49.008;8.390;2022-07-29T12:58:40;30.10;99.90
27128;DHT22;14660;49.008;8.390;2022-07-29T13:01:26;30.10;99.90
27128;DHT22;14660;49.008;8.390;2022-07-29T13:03:57;30.10;99.90
27128;DHT22;14660;49.008;8.390;2022-07-29T13:06:44;30.10;99.90
27128;DHT22;14660;49.008;8.390;2022-07-29T13:09:16;30.10;99.90
27128;DHT22;14660;49.008;8.390;2022-07-29T13:12:05;30.10;99.90
27128;DHT22;14660;49.008;8.390;2022-07-29T13:14:50;30.10;99.90
27128;DHT22;14660;49.008;8.390;2022-07-29T13:17:23;30.10;99.90
27128;DHT22;14660;49.008;8.390;2022-07-29T13:20:09;30.20;99.90
27128;DHT22;14660;49.008;8.390;2022-07-29T13:22:39;30.10;99.90
27128;DHT22;14660;49.008;8.390;2022-07-29T13:25:06;30.10;99.90
27128;DHT22;14660;49.008;8.390;2022-07-29T13:27:35;30.10;99.90
27128;DHT22;14660;49.008;8.390;2022-07-29T13:30:08;30.10;99.90
27128;DHT22;14660;49.008;8.390;2022-07-29T13:32:35;30.10;99.90
27128;DHT22;14660;49.008;8.390;2022-07-29T13:35:04;30.10;99.90
27128;DHT22;14660;49.008;8.390;2022-07-29T13:37:32;30.10;99.90
27128;DHT22;14660;49.008;8.390;2022-07-29T13:40:02;30.00;99.90
27128;DHT22;14660;49.008;8.390;2022-07-29T13:42:29;30.00;99.90
27128;DHT22;14660;49.008;8.390;2022-07-29T13:44:56;30.00;99.90
27128;DHT22;14660;49.008;8.390;2022-07-29T13:47:23;29.90;99.90
27128;DHT22;14660;49.008;8.390;2022-07-29T13:49:50;29.90;99.90
27128;DHT22;14660;49.008;8.390;2022-07-29T13:52:16;29.90;99.90
27128;DHT22;14660;49.008;8.390;2022-07-29T13:54:43;29.90;99.90
27128;DHT22;14660;49.008;8.390;2022-07-29T13:57:11;29.90;99.90
27128;DHT22;14660;49.008;8.390;2022-07-29T13:59:40;30.00;99.90
27128;DHT22;14660;49.008;8.390;2022-07-29T14:02:08;30.00;99.90
27128;DHT22;14660;49.008;8.390;2022-07-29T14:04:35;30.00;99.70
27128;DHT22;14660;49.008;8.390;2022-07-29T14:07:03;30.00;99.20
27128;DHT22;14660;49.008;8.390;2022-07-29T14:09:30;30.00;99.60
27128;DHT22;14660;49.008;8.390;2022-07-29T14:11:57;30.00;99.00
27128;DHT22;14660;49.008;8.390;2022-07-29T14:14:24;30.00;99.50
27128;DHT22;14660;49.008;8.390;2022-07-29T14:16:50;30.00;99.30
27128;DHT22;14660;49.008;8.390;2022-07-29T14:19:17;30.00;99.20
27128;DHT22;14660;49.008;8.390;2022-07-29T14:21:44;30.00;99.10
27128;DHT22;14660;49.008;8.390;2022-07-29T14:24:11;30.00;98.20
27128;DHT22;14660;49.008;8.390;2022-07-29T14:26:38;29.90;98.40
27128;DHT22;14660;49.008;8.390;2022-07-29T14:29:04;29.90;98.30
27128;DHT22;14660;49.008;8.390;2022-07-29T14:31:31;29.80;98.20
27128;DHT22;14660;49.008;8.390;2022-07-29T14:33:58;29.70;97.90
27128;DHT22;14660;49.008;8.390;2022-07-29T14:36:24;29.70;97.60
27128;DHT22;14660;49.008;8.390;2022-07-29T14:38:51;29.60;97.70
27128;DHT22;14660;49.008;8.390;2022-07-29T14:41:18;29.60;97.60
27128;DHT22;14660;49.008;8.390;2022-07-29T14:43:44;29.60;97.70
27128;DHT22;14660;49.008;8.390;2022-07-29T14:46:10;29.60;97.80
27128;DHT22;14660;49.008;8.390;2022-07-29T14:48:37;29.60;97.90
27128;DHT22;14660;49.008;8.390;2022-07-29T14:51:04;29.60;97.40
27128;DHT22;14660;49.008;8.390;2022-07-29T14:53:30;29.60;97.30
27128;DHT22;14660;49.008;8.390;2022-07-29T14:55:57;29.70;96.90
27128;DHT22;14660;49.008;8.390;2022-07-29T14:58:24;29.60;96.30
27128;DHT22;14660;49.008;8.390;2022-07-29T15:00:51;29.60;96.80
27128;DHT22;14660;49.008;8.390;2022-07-29T15:03:18;29.60;96.70
27128;DHT22;14660;49.008;8.390;2022-07-29T15:05:45;29.70;96.70
27128;DHT22;14660;49.008;8.390;2022-07-29T15:08:11;29.70;96.40
27128;DHT22;14660;49.008;8.390;2022-07-29T15:10:38;29.70;96.00
27128;DHT22;14660;49.008;8.390;2022-07-29T15:13:05;29.70;95.90
27128;DHT22;14660;49.008;8.390;2022-07-29T15:15:32;29.70;95.70
27128;DHT22;14660;49.008;8.390;2022-07-29T15:17:59;29.60;95.40
27128;DHT22;14660;49.008;8.390;2022-07-29T15:20:26;29.60;95.60
27128;DHT22;14660;49.008;8.390;2022-07-29T15:22:54;29.50;95.60
27128;DHT22;14660;49.008;8.390;2022-07-29T15:25:23;29.50;95.40
27128;DHT22;14660;49.008;8.390;2022-07-29T15:27:50;29.40;95.00
27128;DHT22;14660;49.008;8.390;2022-07-29T15:30:17;29.40;94.80
27128;DHT22;14660;49.008;8.390;2022-07-29T15:32:44;29.40;95.20
27128;DHT22;14660;49.008;8.390;2022-07-29T15:35:10;29.40;94.60
27128;DHT22;14660;49.008;8.390;2022-07-29T15:37:38;29.40;95.30
27128;DHT22;14660;49.008;8.390;2022-07-29T15:40:06;29.40;95.20
27128;DHT22;14660;49.008;8.390;2022-07-29T15:42:35;29.50;95.20
27128;DHT22;14660;49.008;8.390;2022-07-29T15:45:01;29.50;94.70
27128;DHT22;14660;49.008;8.390;2022-07-29T15:47:28;29.60;94.50
27128;DHT22;14660;49.008;8.390;2022-07-29T15:49:54;29.60;94.60
27128;DHT22;14660;49.008;8.390;2022-07-29T15:52:21;29.50;94.20
27128;DHT22;14660;49.008;8.390;2022-07-29T15:54:48;29.50;94.00
27128;DHT22;14660;49.008;8.390;2022-07-29T15:57:15;29.40;94.10
27128;DHT22;14660;49.008;8.390;2022-07-29T15:59:41;29.40;94.00
27128;DHT22;14660;49.008;8.390;2022-07-29T16:02:08;29.30;94.10
27128;DHT22;14660;49.008;8.390;2022-07-29T16:04:36;29.20;93.60
27128;DHT22;14660;49.008;8.390;2022-07-29T16:07:03;29.20;93.20
27128;DHT22;14660;49.008;8.390;2022-07-29T16:09:30;29.20;93.20
27128;DHT22;14660;49.008;8.390;2022-07-29T16:11:57;29.10;93.10
27128;DHT22;14660;49.008;8.390;2022-07-29T16:14:24;29.10;93.30
27128;DHT22;14660;49.008;8.390;2022-07-29T16:16:52;28.90;93.70